Jolyn — PJWG — position and weather

sailwx.info

Track history (hours):
 
Tides and Currents Weather Stations Pressure Air Temp Water Temp Dewpoint Dewpoint Depression Visibility Wind Speed Wind Dir Waves Ship Positions

Jolyn

Last reported at 2016-Apr-29 21:33 UTC. Time now 2016-Apr-29 21:40 UTC.
Position N 51°54' E 004°28'.

Length 89 m; draft 4 m.

Type: Cargo ship. MMSI: 306813000.

Date/timePositionNaut miles runAvg speedWind from/ knotsBaromVisibWave heightAir tempDewpointWater temp
2016-Apr-29 21:33N 51°54' E 004°28'0 0.0
2016-Apr-29 20:33N 51°54' E 004°28'0 0.0
2016-Apr-29 19:33N 51°54' E 004°28'0 0.0
2016-Apr-29 18:33N 51°54' E 004°28'0 0.0
2016-Apr-29 17:33N 51°54' E 004°28'0 0.0
2016-Apr-29 16:33N 51°54' E 004°28'0 0.0
2016-Apr-29 15:33N 51°54' E 004°28'0 0.0
2016-Apr-29 14:33N 51°54' E 004°28'0 0.0
2016-Apr-29 13:33N 51°54' E 004°28'0 0.0
2016-Apr-29 12:33N 51°54' E 004°28'0 0.0
2016-Apr-29 11:33N 51°54' E 004°28'0 0.0
2016-Apr-29 10:33N 51°54' E 004°28'0 0.0
2016-Apr-29 09:33N 51°54' E 004°28'8 8.0
2016-Apr-29 08:33N 51°55' E 004°15'1010.1
2016-Apr-29 07:33N 51°60' E 004°01'10 9.9
2016-Apr-29 06:33N 52°05' E 003°48'8 8.2
2016-Apr-29 05:33N 52°13' E 003°47'7 7.2
2016-Apr-29 04:33N 52°20' E 003°49'8 8.0
2016-Apr-29 03:31N 52°28' E 003°51'9 8.2
2016-Apr-29 02:28N 52°37' E 003°54'38 5.9
2016-Apr-28 20:08N 53°10' E 004°25'30 7.9
2016-Apr-28 16:22N 53°32' E 004°57'1012.0
2016-Apr-28 15:33N 53°36' E 005°12'1211.6
2016-Apr-28 14:34N 53°39' E 005°31'1110.6
2016-Apr-28 13:33N 53°43' E 005°48'10 9.8
2016-Apr-28 12:33N 53°42' E 006°04'10 9.8
2016-Apr-28 11:33N 53°38' E 006°19'9 9.1
2016-Apr-28 10:33N 53°36' E 006°34'8 8.3
2016-Apr-28 09:33N 53°31' E 006°45'10 9.9
2016-Apr-28 08:34N 53°24' E 006°57'5 4.5
2016-Apr-28 07:33N 53°20' E 006°56'0 0.0
2016-Apr-28 06:33N 53°20' E 006°56'0 0.0
2016-Apr-28 05:33N 53°20' E 006°56'0 0.0
2016-Apr-28 04:33N 53°20' E 006°56'0 0.0
2016-Apr-28 03:33N 53°20' E 006°56'0 0.0
2016-Apr-28 02:33N 53°20' E 006°56'0 0.0
2016-Apr-28 01:33N 53°20' E 006°56'0 0.0
2016-Apr-28 00:33N 53°20' E 006°56'0 0.0
2016-Apr-27 23:33N 53°20' E 006°56'0 0.0
2016-Apr-27 22:33N 53°20' E 006°56'0 0.0
2016-Apr-27 21:33N 53°20' E 006°56'0 0.0
2016-Apr-27 20:33N 53°20' E 006°56'0 0.0
2016-Apr-27 19:33N 53°20' E 006°56'0 0.0
2016-Apr-27 18:33N 53°20' E 006°56'0 0.0
2016-Apr-27 17:33N 53°20' E 006°56'0 0.0
2016-Apr-27 16:33N 53°20' E 006°56'0 0.0
2016-Apr-27 15:33N 53°20' E 006°56'0 0.0
2016-Apr-27 14:33N 53°20' E 006°56'0 0.0
2016-Apr-27 13:33N 53°20' E 006°56'0 0.0
2016-Apr-27 12:33N 53°20' E 006°56'0 0.0
2016-Apr-27 11:33N 53°20' E 006°56'0 0.0
2016-Apr-27 10:33N 53°20' E 006°56'0 0.0
2016-Apr-27 09:33N 53°20' E 006°56'0 0.0
2016-Apr-27 08:33N 53°20' E 006°56'0 0.0
2016-Apr-27 07:33N 53°20' E 006°56'0 0.0
2016-Apr-27 06:33N 53°20' E 006°56'0 0.0
2016-Apr-27 05:33N 53°20' E 006°56'0 0.0
2016-Apr-27 04:33N 53°20' E 006°56'0 0.0
2016-Apr-27 03:33N 53°20' E 006°56'0 0.0
2016-Apr-27 02:33N 53°20' E 006°56'0 0.0
2016-Apr-27 01:33N 53°20' E 006°56'0 0.0
2016-Apr-27 00:24N 53°20' E 006°56'0 0.0
2016-Apr-26 23:33N 53°20' E 006°56'0 0.0
2016-Apr-26 22:33N 53°20' E 006°56'0 0.0
2016-Apr-26 21:33N 53°20' E 006°56'0 0.0
2016-Apr-26 20:33N 53°20' E 006°56'0 0.0
2016-Apr-26 19:33N 53°20' E 006°56'0 0.0
2016-Apr-26 18:33N 53°20' E 006°56'0 0.0
2016-Apr-26 17:33N 53°20' E 006°56'0 0.0
2016-Apr-26 16:33N 53°20' E 006°56'0 0.0
2016-Apr-26 15:33N 53°20' E 006°56'0 0.0
2016-Apr-26 14:33N 53°20' E 006°56'0 0.0
2016-Apr-26 13:33N 53°20' E 006°56'0 0.0
2016-Apr-26 12:33N 53°20' E 006°56'0 0.0
2016-Apr-26 11:30N 53°20' E 006°56'0 0.0
2016-Apr-26 10:33N 53°20' E 006°56'0 0.0
2016-Apr-26 09:33N 53°20' E 006°56'0 0.0
2016-Apr-26 08:30N 53°20' E 006°56'0 0.0
2016-Apr-26 07:33N 53°20' E 006°56'0 0.0
2016-Apr-26 06:33N 53°20' E 006°56'0 0.0
2016-Apr-26 05:33N 53°20' E 006°56'0 0.0
2016-Apr-26 04:30N 53°20' E 006°56'0 0.0
2016-Apr-26 03:30N 53°20' E 006°56'0 0.0
2016-Apr-26 02:33N 53°20' E 006°56'0 0.0
2016-Apr-26 01:33N 53°20' E 006°56'0 0.0
2016-Apr-26 00:33N 53°20' E 006°56'0 0.0
2016-Apr-25 23:33N 53°20' E 006°56'0 0.0
2016-Apr-25 22:33N 53°20' E 006°56'0 0.0
2016-Apr-25 21:33N 53°20' E 006°56'0 0.0
2016-Apr-25 20:33N 53°20' E 006°56'0 0.0
2016-Apr-25 19:30N 53°20' E 006°56'0 0.0
2016-Apr-25 18:33N 53°20' E 006°56'0 0.0
2016-Apr-25 17:33N 53°20' E 006°56'0 0.0
2016-Apr-25 16:33N 53°20' E 006°56'0 0.0
2016-Apr-25 15:30N 53°20' E 006°56'0 0.0
2016-Apr-25 14:30N 53°20' E 006°56'0 0.0
2016-Apr-25 13:33N 53°20' E 006°56'0 0.0
2016-Apr-25 12:33N 53°20' E 006°56'0 0.0
2016-Apr-25 11:33N 53°20' E 006°56'0 0.0
2016-Apr-25 10:33N 53°20' E 006°56'0 0.0
2016-Apr-25 09:33N 53°20' E 006°56'0 0.0
2016-Apr-25 08:30N 53°20' E 006°56'0 0.0
2016-Apr-25 07:33N 53°20' E 006°56'0 0.0
2016-Apr-25 06:33N 53°20' E 006°56'0 0.0
2016-Apr-25 05:33N 53°20' E 006°56'0 0.0
2016-Apr-25 04:33N 53°20' E 006°56'0 0.0
2016-Apr-25 03:33N 53°20' E 006°56'0 0.0
2016-Apr-25 02:33N 53°20' E 006°56'0 0.0
2016-Apr-25 01:33N 53°20' E 006°56'0 0.0
2016-Apr-25 00:33N 53°20' E 006°56'0 0.0
2016-Apr-24 23:33N 53°20' E 006°56'0 0.0
2016-Apr-24 22:30N 53°20' E 006°56'0 0.0
2016-Apr-24 21:33N 53°20' E 006°56'0 0.0
2016-Apr-24 20:33N 53°20' E 006°56'0 0.0
2016-Apr-24 19:33N 53°20' E 006°56'0 0.0
2016-Apr-24 18:33N 53°20' E 006°56'0 0.0
2016-Apr-24 17:33N 53°20' E 006°56'0 0.0
2016-Apr-24 16:33N 53°20' E 006°56'0 0.0
2016-Apr-24 15:33N 53°20' E 006°56'0 0.0
2016-Apr-24 14:33N 53°20' E 006°56'0 0.0
2016-Apr-24 13:30N 53°20' E 006°56'0 0.0
2016-Apr-24 12:33N 53°20' E 006°56'0 0.0
2016-Apr-24 11:33N 53°20' E 006°56'0 0.0
2016-Apr-24 10:33N 53°20' E 006°56'0 0.0
2016-Apr-24 09:33N 53°20' E 006°56'0 0.0
2016-Apr-24 08:33N 53°20' E 006°56'0 0.0
2016-Apr-24 07:33N 53°20' E 006°56'0 0.0
2016-Apr-24 06:33N 53°20' E 006°56'0 0.0
2016-Apr-24 05:33N 53°20' E 006°56'0 0.0
2016-Apr-24 04:33N 53°20' E 006°56'0 0.0
2016-Apr-24 03:33N 53°20' E 006°56'0 0.0
2016-Apr-24 02:33N 53°20' E 006°56'0 0.0
2016-Apr-24 01:33N 53°20' E 006°56'0 0.0
2016-Apr-24 00:33N 53°20' E 006°56'0 0.0
2016-Apr-23 23:33N 53°20' E 006°56'0 0.0
2016-Apr-23 22:33N 53°20' E 006°56'0 0.0
2016-Apr-23 21:33N 53°20' E 006°56'0 0.0
2016-Apr-23 20:33N 53°20' E 006°56'0 0.0
2016-Apr-23 19:33N 53°20' E 006°56'0 0.0
2016-Apr-23 18:33N 53°20' E 006°56'0 0.0
2016-Apr-23 17:33N 53°20' E 006°56'0 0.0
2016-Apr-23 16:33N 53°20' E 006°56'3 2.6
2016-Apr-23 15:33N 53°19' E 007°00'7 6.9
2016-Apr-23 14:33N 53°25' E 006°56'8 8.1
2016-Apr-23 13:33N 53°31' E 006°46'9 8.7
2016-Apr-23 12:33N 53°36' E 006°34'9 9.1
2016-Apr-23 11:33N 53°37' E 006°19'9 9.1
2016-Apr-23 10:33N 53°40' E 006°04'9 9.0
2016-Apr-23 09:33N 53°38' E 005°50'9 9.3
2016-Apr-23 08:33N 53°35' E 005°35'1110.8
2016-Apr-23 07:33N 53°31' E 005°18'1010.0
2016-Apr-23 06:32N 53°28' E 005°02'29 9.6
2016-Apr-23 03:32N 53°07' E 004°29'9 9.0
2016-Apr-23 02:33N 52°59' E 004°21'9 8.6
2016-Apr-23 01:33N 52°51' E 004°16'56 7.9
2016-Apr-22 18:27N 52°10' E 003°12'8 8.7
2016-Apr-22 17:33N 52°04' E 003°04'43 9.8
2016-Apr-22 13:13N 51°32' E 002°19'711.2
2016-Apr-22 12:34N 51°25' E 002°13'1111.2
2016-Apr-22 11:33N 51°15' E 002°06'1110.5
2016-Apr-22 10:33N 51°09' E 001°52'10 9.8
2016-Apr-22 09:33N 51°02' E 001°41'9 8.5
2016-Apr-22 08:33N 50°56' E 001°32'7 7.3
2016-Apr-22 07:33N 50°50' E 001°26'47 6.7
2016-Apr-22 00:32N 50°25' E 000°23'7 7.3
2016-Apr-21 23:33N 50°23' E 000°12'8 8.1
2016-Apr-21 22:33N 50°21' W 000°00'9 9.1
2016-Apr-21 21:33N 50°18' W 000°14'1010.1
2016-Apr-21 20:33N 50°15' W 000°29'1110.6
2016-Apr-21 19:33N 50°13' W 000°45'1010.4
2016-Apr-21 18:33N 50°10' W 001°01'9 9.0
2016-Apr-21 17:33N 50°08' W 001°15'7 7.3
2016-Apr-21 16:33N 50°06' W 001°25'6 5.6
2016-Apr-21 15:33N 50°05' W 001°34'4 3.7
2016-Apr-21 14:24N 50°03' W 001°40'40 5.7
2016-Apr-21 07:20N 49°51' W 002°40'7 8.5
2016-Apr-21 06:33N 49°49' W 002°50'17 8.4
2016-Apr-21 04:33N 49°42' W 003°13'7 7.4
2016-Apr-21 03:33N 49°39' W 003°23'35 5.5
2016-Apr-20 21:13N 49°43' W 004°17'5 5.6
2016-Apr-20 20:23N 49°45' W 004°24'5 5.6
2016-Apr-20 19:33N 49°46' W 004°31'6 5.9
2016-Apr-20 18:33N 49°48' W 004°40'7 6.1
2016-Apr-20 17:27N 49°49' W 004°50'7 5.8
2016-Apr-20 16:18N 49°50' W 005°00'5 5.7
2016-Apr-20 15:22N 49°51' W 005°08'6 5.7
2016-Apr-20 14:22N 49°52' W 005°17'26 6.5
2016-Apr-20 10:21N 49°56' W 005°57'5 4.6
2016-Apr-20 09:23N 49°60' W 006°00'9 9.6
2016-Apr-20 08:26N 50°09' W 006°01'1010.7
2016-Apr-20 07:33N 50°18' W 006°02'1310.1
2016-Apr-20 06:13N 50°31' W 006°08'4810.1
2016-Apr-20 01:30N 51°17' W 006°32'1010.4
2016-Apr-20 00:33N 51°26' W 006°37'1010.4
2016-Apr-19 23:33N 51°36' W 006°43'1010.5
2016-Apr-19 22:33N 51°45' W 006°48'  
Track history (hours):
 
Tides and Currents Weather Stations Pressure Air Temp Water Temp Dewpoint Dewpoint Depression Visibility Wind Speed Wind Dir Waves Ship Positions

Jolyn

Last reported at 2016-Apr-29 21:33 UTC. Time now 2016-Apr-29 21:40 UTC.
Position N 51°54' E 004°28'.

Length 89 m; draft 4 m.

Type: Cargo ship. MMSI: 306813000.

Date/timePositionNaut miles runAvg speedWind from/ knotsBaromVisibWave heightAir tempDewpointWater temp
2016-Apr-29 21:33N 51°54' E 004°28'0 0.0
2016-Apr-29 20:33N 51°54' E 004°28'0 0.0
2016-Apr-29 19:33N 51°54' E 004°28'0 0.0
2016-Apr-29 18:33N 51°54' E 004°28'0 0.0
2016-Apr-29 17:33N 51°54' E 004°28'0 0.0
2016-Apr-29 16:33N 51°54' E 004°28'0 0.0
2016-Apr-29 15:33N 51°54' E 004°28'0 0.0
2016-Apr-29 14:33N 51°54' E 004°28'0 0.0
2016-Apr-29 13:33N 51°54' E 004°28'0 0.0
2016-Apr-29 12:33N 51°54' E 004°28'0 0.0
2016-Apr-29 11:33N 51°54' E 004°28'0 0.0
2016-Apr-29 10:33N 51°54' E 004°28'0 0.0
2016-Apr-29 09:33N 51°54' E 004°28'8 8.0
2016-Apr-29 08:33N 51°55' E 004°15'1010.1
2016-Apr-29 07:33N 51°60' E 004°01'10 9.9
2016-Apr-29 06:33N 52°05' E 003°48'8 8.2
2016-Apr-29 05:33N 52°13' E 003°47'7 7.2
2016-Apr-29 04:33N 52°20' E 003°49'8 8.0
2016-Apr-29 03:31N 52°28' E 003°51'9 8.2
2016-Apr-29 02:28N 52°37' E 003°54'38 5.9
2016-Apr-28 20:08N 53°10' E 004°25'30 7.9
2016-Apr-28 16:22N 53°32' E 004°57'1012.0
2016-Apr-28 15:33N 53°36' E 005°12'1211.6
2016-Apr-28 14:34N 53°39' E 005°31'1110.6
2016-Apr-28 13:33N 53°43' E 005°48'10 9.8
2016-Apr-28 12:33N 53°42' E 006°04'10 9.8
2016-Apr-28 11:33N 53°38' E 006°19'9 9.1
2016-Apr-28 10:33N 53°36' E 006°34'8 8.3
2016-Apr-28 09:33N 53°31' E 006°45'10 9.9
2016-Apr-28 08:34N 53°24' E 006°57'5 4.5
2016-Apr-28 07:33N 53°20' E 006°56'0 0.0
2016-Apr-28 06:33N 53°20' E 006°56'0 0.0
2016-Apr-28 05:33N 53°20' E 006°56'0 0.0
2016-Apr-28 04:33N 53°20' E 006°56'0 0.0
2016-Apr-28 03:33N 53°20' E 006°56'0 0.0
2016-Apr-28 02:33N 53°20' E 006°56'0 0.0
2016-Apr-28 01:33N 53°20' E 006°56'0 0.0
2016-Apr-28 00:33N 53°20' E 006°56'0 0.0
2016-Apr-27 23:33N 53°20' E 006°56'0 0.0
2016-Apr-27 22:33N 53°20' E 006°56'0 0.0
2016-Apr-27 21:33N 53°20' E 006°56'0 0.0
2016-Apr-27 20:33N 53°20' E 006°56'0 0.0
2016-Apr-27 19:33N 53°20' E 006°56'0 0.0
2016-Apr-27 18:33N 53°20' E 006°56'0 0.0
2016-Apr-27 17:33N 53°20' E 006°56'0 0.0
2016-Apr-27 16:33N 53°20' E 006°56'0 0.0
2016-Apr-27 15:33N 53°20' E 006°56'0 0.0
2016-Apr-27 14:33N 53°20' E 006°56'0 0.0
2016-Apr-27 13:33N 53°20' E 006°56'0 0.0
2016-Apr-27 12:33N 53°20' E 006°56'0 0.0
2016-Apr-27 11:33N 53°20' E 006°56'0 0.0
2016-Apr-27 10:33N 53°20' E 006°56'0 0.0
2016-Apr-27 09:33N 53°20' E 006°56'0 0.0
2016-Apr-27 08:33N 53°20' E 006°56'0 0.0
2016-Apr-27 07:33N 53°20' E 006°56'0 0.0
2016-Apr-27 06:33N 53°20' E 006°56'0 0.0
2016-Apr-27 05:33N 53°20' E 006°56'0 0.0
2016-Apr-27 04:33N 53°20' E 006°56'0 0.0
2016-Apr-27 03:33N 53°20' E 006°56'0 0.0
2016-Apr-27 02:33N 53°20' E 006°56'0 0.0
2016-Apr-27 01:33N 53°20' E 006°56'0 0.0
2016-Apr-27 00:24N 53°20' E 006°56'0 0.0
2016-Apr-26 23:33N 53°20' E 006°56'0 0.0
2016-Apr-26 22:33N 53°20' E 006°56'0 0.0
2016-Apr-26 21:33N 53°20' E 006°56'0 0.0
2016-Apr-26 20:33N 53°20' E 006°56'0 0.0
2016-Apr-26 19:33N 53°20' E 006°56'0 0.0
2016-Apr-26 18:33N 53°20' E 006°56'0 0.0
2016-Apr-26 17:33N 53°20' E 006°56'0 0.0
2016-Apr-26 16:33N 53°20' E 006°56'0 0.0
2016-Apr-26 15:33N 53°20' E 006°56'0 0.0
2016-Apr-26 14:33N 53°20' E 006°56'0 0.0
2016-Apr-26 13:33N 53°20' E 006°56'0 0.0
2016-Apr-26 12:33N 53°20' E 006°56'0 0.0
2016-Apr-26 11:30N 53°20' E 006°56'0 0.0
2016-Apr-26 10:33N 53°20' E 006°56'0 0.0
2016-Apr-26 09:33N 53°20' E 006°56'0 0.0
2016-Apr-26 08:30N 53°20' E 006°56'0 0.0
2016-Apr-26 07:33N 53°20' E 006°56'0 0.0
2016-Apr-26 06:33N 53°20' E 006°56'0 0.0
2016-Apr-26 05:33N 53°20' E 006°56'0 0.0
2016-Apr-26 04:30N 53°20' E 006°56'0 0.0
2016-Apr-26 03:30N 53°20' E 006°56'0 0.0
2016-Apr-26 02:33N 53°20' E 006°56'0 0.0
2016-Apr-26 01:33N 53°20' E 006°56'0 0.0
2016-Apr-26 00:33N 53°20' E 006°56'0 0.0
2016-Apr-25 23:33N 53°20' E 006°56'0 0.0
2016-Apr-25 22:33N 53°20' E 006°56'0 0.0
2016-Apr-25 21:33N 53°20' E 006°56'0 0.0
2016-Apr-25 20:33N 53°20' E 006°56'0 0.0
2016-Apr-25 19:30N 53°20' E 006°56'0 0.0
2016-Apr-25 18:33N 53°20' E 006°56'0 0.0
2016-Apr-25 17:33N 53°20' E 006°56'0 0.0
2016-Apr-25 16:33N 53°20' E 006°56'0 0.0
2016-Apr-25 15:30N 53°20' E 006°56'0 0.0
2016-Apr-25 14:30N 53°20' E 006°56'0 0.0
2016-Apr-25 13:33N 53°20' E 006°56'0 0.0
2016-Apr-25 12:33N 53°20' E 006°56'0 0.0
2016-Apr-25 11:33N 53°20' E 006°56'0 0.0
2016-Apr-25 10:33N 53°20' E 006°56'0 0.0
2016-Apr-25 09:33N 53°20' E 006°56'0 0.0
2016-Apr-25 08:30N 53°20' E 006°56'0 0.0
2016-Apr-25 07:33N 53°20' E 006°56'0 0.0
2016-Apr-25 06:33N 53°20' E 006°56'0 0.0
2016-Apr-25 05:33N 53°20' E 006°56'0 0.0
2016-Apr-25 04:33N 53°20' E 006°56'0 0.0
2016-Apr-25 03:33N 53°20' E 006°56'0 0.0
2016-Apr-25 02:33N 53°20' E 006°56'0 0.0
2016-Apr-25 01:33N 53°20' E 006°56'0 0.0
2016-Apr-25 00:33N 53°20' E 006°56'0 0.0
2016-Apr-24 23:33N 53°20' E 006°56'0 0.0
2016-Apr-24 22:30N 53°20' E 006°56'0 0.0
2016-Apr-24 21:33N 53°20' E 006°56'0 0.0
2016-Apr-24 20:33N 53°20' E 006°56'0 0.0
2016-Apr-24 19:33N 53°20' E 006°56'0 0.0
2016-Apr-24 18:33N 53°20' E 006°56'0 0.0
2016-Apr-24 17:33N 53°20' E 006°56'0 0.0
2016-Apr-24 16:33N 53°20' E 006°56'0 0.0
2016-Apr-24 15:33N 53°20' E 006°56'0 0.0
2016-Apr-24 14:33N 53°20' E 006°56'0 0.0
2016-Apr-24 13:30N 53°20' E 006°56'0 0.0
2016-Apr-24 12:33N 53°20' E 006°56'0 0.0
2016-Apr-24 11:33N 53°20' E 006°56'0 0.0
2016-Apr-24 10:33N 53°20' E 006°56'0 0.0
2016-Apr-24 09:33N 53°20' E 006°56'0 0.0
2016-Apr-24 08:33N 53°20' E 006°56'0 0.0
2016-Apr-24 07:33N 53°20' E 006°56'0 0.0
2016-Apr-24 06:33N 53°20' E 006°56'0 0.0
2016-Apr-24 05:33N 53°20' E 006°56'0 0.0
2016-Apr-24 04:33N 53°20' E 006°56'0 0.0
2016-Apr-24 03:33N 53°20' E 006°56'0 0.0
2016-Apr-24 02:33N 53°20' E 006°56'0 0.0
2016-Apr-24 01:33N 53°20' E 006°56'0 0.0
2016-Apr-24 00:33N 53°20' E 006°56'0 0.0
2016-Apr-23 23:33N 53°20' E 006°56'0 0.0
2016-Apr-23 22:33N 53°20' E 006°56'0 0.0
2016-Apr-23 21:33N 53°20' E 006°56'0 0.0
2016-Apr-23 20:33N 53°20' E 006°56'0 0.0
2016-Apr-23 19:33N 53°20' E 006°56'0 0.0
2016-Apr-23 18:33N 53°20' E 006°56'0 0.0
2016-Apr-23 17:33N 53°20' E 006°56'0 0.0
2016-Apr-23 16:33N 53°20' E 006°56'3 2.6
2016-Apr-23 15:33N 53°19' E 007°00'7 6.9
2016-Apr-23 14:33N 53°25' E 006°56'8 8.1
2016-Apr-23 13:33N 53°31' E 006°46'9 8.7
2016-Apr-23 12:33N 53°36' E 006°34'9 9.1
2016-Apr-23 11:33N 53°37' E 006°19'9 9.1
2016-Apr-23 10:33N 53°40' E 006°04'9 9.0
2016-Apr-23 09:33N 53°38' E 005°50'9 9.3
2016-Apr-23 08:33N 53°35' E 005°35'1110.8
2016-Apr-23 07:33N 53°31' E 005°18'1010.0
2016-Apr-23 06:32N 53°28' E 005°02'29 9.6
2016-Apr-23 03:32N 53°07' E 004°29'9 9.0
2016-Apr-23 02:33N 52°59' E 004°21'9 8.6
2016-Apr-23 01:33N 52°51' E 004°16'56 7.9
2016-Apr-22 18:27N 52°10' E 003°12'8 8.7
2016-Apr-22 17:33N 52°04' E 003°04'43 9.8
2016-Apr-22 13:13N 51°32' E 002°19'711.2
2016-Apr-22 12:34N 51°25' E 002°13'1111.2
2016-Apr-22 11:33N 51°15' E 002°06'1110.5
2016-Apr-22 10:33N 51°09' E 001°52'10 9.8
2016-Apr-22 09:33N 51°02' E 001°41'9 8.5
2016-Apr-22 08:33N 50°56' E 001°32'7 7.3
2016-Apr-22 07:33N 50°50' E 001°26'47 6.7
2016-Apr-22 00:32N 50°25' E 000°23'7 7.3
2016-Apr-21 23:33N 50°23' E 000°12'8 8.1
2016-Apr-21 22:33N 50°21' W 000°00'9 9.1
2016-Apr-21 21:33N 50°18' W 000°14'1010.1
2016-Apr-21 20:33N 50°15' W 000°29'1110.6
2016-Apr-21 19:33N 50°13' W 000°45'1010.4
2016-Apr-21 18:33N 50°10' W 001°01'9 9.0
2016-Apr-21 17:33N 50°08' W 001°15'7 7.3
2016-Apr-21 16:33N 50°06' W 001°25'6 5.6
2016-Apr-21 15:33N 50°05' W 001°34'4 3.7
2016-Apr-21 14:24N 50°03' W 001°40'40 5.7
2016-Apr-21 07:20N 49°51' W 002°40'7 8.5
2016-Apr-21 06:33N 49°49' W 002°50'17 8.4
2016-Apr-21 04:33N 49°42' W 003°13'7 7.4
2016-Apr-21 03:33N 49°39' W 003°23'35 5.5
2016-Apr-20 21:13N 49°43' W 004°17'5 5.6
2016-Apr-20 20:23N 49°45' W 004°24'5 5.6
2016-Apr-20 19:33N 49°46' W 004°31'6 5.9
2016-Apr-20 18:33N 49°48' W 004°40'7 6.1
2016-Apr-20 17:27N 49°49' W 004°50'7 5.8
2016-Apr-20 16:18N 49°50' W 005°00'5 5.7
2016-Apr-20 15:22N 49°51' W 005°08'6 5.7
2016-Apr-20 14:22N 49°52' W 005°17'26 6.5
2016-Apr-20 10:21N 49°56' W 005°57'5 4.6
2016-Apr-20 09:23N 49°60' W 006°00'9 9.6
2016-Apr-20 08:26N 50°09' W 006°01'1010.7
2016-Apr-20 07:33N 50°18' W 006°02'1310.1
2016-Apr-20 06:13N 50°31' W 006°08'4810.1
2016-Apr-20 01:30N 51°17' W 006°32'1010.4
2016-Apr-20 00:33N 51°26' W 006°37'1010.4
2016-Apr-19 23:33N 51°36' W 006°43'1010.5
2016-Apr-19 22:33N 51°45' W 006°48'  

Dump ship's entire track history